createdAt,value
2019-05-10T00:00:41.473Z,93168.57
2019-05-10T00:03:27.845Z,93176.55
2019-05-10T00:06:14.441Z,93172.11
2019-05-10T00:08:48.131Z,93168.72
2019-05-10T00:11:23.355Z,93171.80
2019-05-10T00:14:09.521Z,93173.66
2019-05-10T00:16:37.976Z,93181.83
2019-05-10T00:19:06.553Z,93180.00
2019-05-10T00:21:35.241Z,93182.06
2019-05-10T00:24:03.703Z,93184.69
2019-05-10T00:26:32.086Z,93183.97
2019-05-10T00:29:00.487Z,93182.38
2019-05-10T00:31:29.749Z,93185.75
2019-05-10T00:33:58.468Z,93181.83
2019-05-10T00:36:26.852Z,93179.13
2019-05-10T00:38:55.518Z,93182.38
2019-05-10T00:41:23.898Z,93180.62
2019-05-10T00:43:52.575Z,93183.73
2019-05-10T00:46:21.270Z,93187.55
2019-05-10T00:48:49.676Z,93185.70
2019-05-10T00:51:18.065Z,93179.28
2019-05-10T00:53:46.453Z,93183.44
2019-05-10T00:56:14.848Z,93178.73
2019-05-10T00:58:43.241Z,93179.89
2019-05-10T01:01:11.711Z,93183.56
2019-05-10T01:03:40.096Z,93184.23
2019-05-10T01:06:08.849Z,93179.37
2019-05-10T01:08:37.199Z,93182.50
2019-05-10T01:11:05.595Z,93175.97
2019-05-10T01:13:36.397Z,93187.25
2019-05-10T01:16:06.379Z,93182.27
2019-05-10T01:18:35.113Z,93184.20
2019-05-10T01:21:03.796Z,93190.52
2019-05-10T01:23:32.491Z,93198.11
2019-05-10T01:26:01.198Z,93198.98
2019-05-10T01:28:29.593Z,93194.63
2019-05-10T01:30:57.987Z,93195.94
2019-05-10T01:33:26.722Z,93192.61
2019-05-10T01:35:55.122Z,93191.30
2019-05-10T01:38:23.511Z,93187.62
2019-05-10T01:40:51.915Z,93188.64
2019-05-10T01:43:20.667Z,93191.65
2019-05-10T01:45:49.074Z,93191.73
2019-05-10T01:48:17.820Z,93201.95
2019-05-10T01:50:46.221Z,93200.16
2019-05-10T01:53:14.882Z,93195.89
2019-05-10T01:55:52.324Z,93196.41
2019-05-10T01:58:13.788Z,93194.67
2019-05-10T02:00:42.181Z,93197.72
2019-05-10T02:03:10.868Z,93193.60
2019-05-10T02:05:39.570Z,93202.50
2019-05-10T02:08:07.955Z,93201.16
2019-05-10T02:10:36.352Z,93198.27
2019-05-10T02:13:04.736Z,93202.98
2019-05-10T02:15:33.131Z,93206.70
2019-05-10T02:18:01.510Z,93201.52
2019-05-10T02:20:30.227Z,93194.98
2019-05-10T02:22:58.620Z,93195.81
2019-05-10T02:25:27.302Z,93201.05
2019-05-10T02:27:55.684Z,93194.83
2019-05-10T02:30:24.144Z,93200.20
2019-05-10T02:32:52.838Z,93209.22
2019-05-10T02:35:21.224Z,93219.19
2019-05-10T02:37:49.914Z,93213.01
2019-05-10T02:40:18.844Z,93212.97
2019-05-10T02:42:47.247Z,93206.14
2019-05-10T02:45:16.415Z,93203.48
2019-05-10T02:47:45.068Z,93204.80
2019-05-10T02:50:13.895Z,93206.09
2019-05-10T02:52:42.284Z,93209.46
2019-05-10T02:55:10.846Z,93208.36
2019-05-10T02:57:39.716Z,93205.42
2019-05-10T03:00:09.033Z,93209.03
2019-05-10T03:02:37.774Z,93211.53
2019-05-10T03:05:07.425Z,93215.13
2019-05-10T03:07:38.081Z,93217.94
2019-05-10T03:10:09.507Z,93207.49
2019-05-10T03:12:40.953Z,93208.56
2019-05-10T03:15:12.142Z,93210.74
2019-05-10T03:17:41.874Z,93214.90
2019-05-10T03:20:12.448Z,93215.97
2019-05-10T03:22:44.003Z,93207.61
2019-05-10T03:25:13.528Z,93210.78
2019-05-10T03:27:42.005Z,93219.65
2019-05-10T03:30:10.638Z,93226.09
2019-05-10T03:32:39.042Z,93233.73
2019-05-10T03:35:08.451Z,93233.43
2019-05-10T03:37:37.175Z,93233.15
2019-05-10T03:40:07.674Z,93243.08
2019-05-10T03:42:36.313Z,93254.40
2019-05-10T03:45:07.086Z,93254.09
2019-05-10T03:47:35.472Z,93255.44
2019-05-10T03:50:05.701Z,93246.49
2019-05-10T03:52:34.367Z,93247.31
2019-05-10T03:55:02.738Z,93254.80
2019-05-10T03:57:31.438Z,93263.30
2019-05-10T03:59:59.823Z,93262.30
2019-05-10T04:02:28.301Z,93256.80
2019-05-10T04:04:56.697Z,93266.70
2019-05-10T04:07:25.151Z,93265.11
2019-05-10T04:09:53.539Z,93266.25
2019-05-10T04:12:21.943Z,93275.12
2019-05-10T04:14:50.606Z,93274.12
2019-05-10T04:17:19.001Z,93282.47
2019-05-10T04:19:47.392Z,93278.32
2019-05-10T04:22:15.786Z,93287.11
2019-05-10T04:24:44.193Z,93282.12
2019-05-10T04:27:30.595Z,93283.51
2019-05-10T04:29:42.688Z,93280.14
2019-05-10T04:32:11.146Z,93279.86
2019-05-10T04:34:39.894Z,93282.99
2019-05-10T04:37:08.576Z,93283.30
2019-05-10T04:39:37.263Z,93283.09
2019-05-10T04:42:05.964Z,93291.52
2019-05-10T04:44:34.354Z,93297.42
2019-05-10T04:47:02.740Z,93295.22
2019-05-10T04:49:31.145Z,93296.77
2019-05-10T04:51:59.561Z,93298.63
2019-05-10T04:54:27.960Z,93298.14
2019-05-10T04:56:59.989Z,93302.37
2019-05-10T04:59:26.752Z,93306.80
2019-05-10T05:01:55.139Z,93309.89
2019-05-10T05:04:23.552Z,93308.89
2019-05-10T05:06:51.939Z,93314.66
2019-05-10T05:09:20.684Z,93316.14
2019-05-10T05:11:49.074Z,93315.60
2019-05-10T05:14:17.720Z,93323.56
2019-05-10T05:16:46.116Z,93322.67
2019-05-10T05:19:14.561Z,93327.23
2019-05-10T05:21:43.267Z,93328.30
2019-05-10T05:24:17.202Z,93332.45
2019-05-10T05:26:41.764Z,93323.05
2019-05-10T05:29:11.594Z,93326.23
2019-05-10T05:31:39.972Z,93326.47
2019-05-10T05:34:08.678Z,93323.59
2019-05-10T05:36:37.359Z,93320.12
2019-05-10T05:39:07.394Z,93322.50
2019-05-10T05:41:47.866Z,93323.56
2019-05-10T05:44:06.601Z,93332.63
2019-05-10T05:46:35.283Z,93330.57
2019-05-10T05:49:03.681Z,93331.84
2019-05-10T05:51:32.074Z,93330.54
2019-05-10T05:54:03.742Z,93338.61
2019-05-10T05:56:30.609Z,93346.66
2019-05-10T05:58:59.011Z,93349.23
2019-05-10T06:01:29.601Z,93349.51
2019-05-10T06:04:00.138Z,93352.84
2019-05-10T06:06:27.642Z,93355.05
2019-05-10T06:08:59.748Z,93351.95
2019-05-10T06:11:29.728Z,93350.48
2019-05-10T06:13:56.578Z,93360.34
2019-05-10T06:16:24.960Z,93352.72
2019-05-10T06:18:53.360Z,93358.25
2019-05-10T06:21:24.513Z,93351.62
2019-05-10T06:23:52.147Z,93360.83
2019-05-10T06:26:28.025Z,93358.42
2019-05-10T06:29:03.410Z,93363.03
2019-05-10T06:31:20.925Z,93358.23
2019-05-10T06:33:49.322Z,93365.55
2019-05-10T06:36:18.028Z,93366.75
2019-05-10T06:38:46.716Z,93376.03
2019-05-10T06:41:16.724Z,93378.23
2019-05-10T06:43:51.061Z,93378.64
2019-05-10T06:46:16.151Z,93382.86
2019-05-10T06:48:44.539Z,93393.17
2019-05-10T06:51:12.944Z,93391.16
2019-05-10T06:53:48.839Z,93387.91
2019-05-10T06:56:11.735Z,93388.52
2019-05-10T06:58:40.113Z,93391.01
2019-05-10T07:01:08.808Z,93389.25
2019-05-10T07:03:37.206Z,93394.52
2019-05-10T07:06:05.952Z,93394.67
2019-05-10T07:08:43.894Z,93390.70
2019-05-10T07:11:04.933Z,93398.85
2019-05-10T07:13:33.321Z,93402.36
2019-05-10T07:16:03.476Z,93402.55
2019-05-10T07:18:32.151Z,93408.77
2019-05-10T07:21:06.145Z,93404.19
2019-05-10T07:23:30.684Z,93397.77
2019-05-10T07:25:59.345Z,93404.73
2019-05-10T07:28:28.017Z,93406.85
2019-05-10T07:30:56.423Z,93404.86
2019-05-10T07:33:24.816Z,93402.49
2019-05-10T07:35:53.221Z,93408.03
2019-05-10T07:38:23.778Z,93406.59
2019-05-10T07:40:51.738Z,93408.97
2019-05-10T07:43:26.406Z,93404.06
2019-05-10T07:45:50.588Z,93410.98
2019-05-10T07:48:18.977Z,93398.81
2019-05-10T07:50:49.385Z,93407.76
2019-05-10T07:53:22.788Z,93410.67
2019-05-10T07:55:47.886Z,93410.09
2019-05-10T07:58:16.267Z,93411.40
2019-05-10T08:00:46.743Z,93410.20
2019-05-10T08:03:17.630Z,93412.36
2019-05-10T08:05:46.405Z,93412.70
2019-05-10T08:08:15.815Z,93420.41
2019-05-10T08:10:44.220Z,93423.28
2019-05-10T08:13:15.294Z,93424.58
2019-05-10T08:15:43.004Z,93428.70
2019-05-10T08:18:15.310Z,93423.45
2019-05-10T08:20:50.306Z,93425.48
2019-05-10T08:23:13.094Z,93426.86
2019-05-10T08:25:46.846Z,93432.63
2019-05-10T08:28:12.763Z,93432.17
2019-05-10T08:30:52.358Z,93423.33
2019-05-10T08:33:14.904Z,93430.19
2019-05-10T08:35:46.080Z,93430.20
2019-05-10T08:38:13.767Z,93431.20
2019-05-10T08:40:43.110Z,93436.05
2019-05-10T08:43:16.105Z,93434.49
2019-05-10T08:45:44.961Z,93439.02
2019-05-10T08:48:12.744Z,93428.88
2019-05-10T08:50:53.366Z,93432.95
2019-05-10T08:53:16.243Z,93430.05
2019-05-10T08:55:43.248Z,93433.75
2019-05-10T09:01:12.138Z,93432.64
2019-05-10T09:03:28.677Z,93440.75
2019-05-10T09:05:57.073Z,93440.64
2019-05-10T09:08:28.555Z,93442.48
2019-05-10T09:10:55.614Z,93450.92
2019-05-10T09:13:28.843Z,93447.78
2019-05-10T09:15:56.805Z,93455.28
2019-05-10T09:18:24.266Z,93457.45
2019-05-10T09:20:54.596Z,93458.17
2019-05-10T09:23:23.615Z,93463.92
2019-05-10T09:25:52.146Z,93461.61
2019-05-10T09:28:21.938Z,93466.63
2019-05-10T09:30:57.517Z,93474.38
2019-05-10T09:33:22.387Z,93474.50
2019-05-10T09:35:54.309Z,93477.92
2019-05-10T09:38:22.152Z,93478.33
2019-05-10T09:40:55.960Z,93473.88
2019-05-10T09:43:24.073Z,93470.22
2019-05-10T09:45:53.071Z,93469.32
2019-05-10T09:48:22.874Z,93472.95
2019-05-10T09:50:53.055Z,93471.73
2019-05-10T09:53:25.616Z,93476.83
2019-05-10T09:56:00.176Z,93462.34
2019-05-10T09:58:22.509Z,93469.87
2019-05-10T10:00:51.168Z,93462.67
2019-05-10T10:03:19.828Z,93464.05
2019-05-10T10:05:48.486Z,93480.41
2019-05-10T10:08:17.650Z,93462.09
2019-05-10T10:10:47.516Z,93470.31
2019-05-10T10:13:33.949Z,93473.06
2019-05-10T10:15:51.541Z,93470.14
2019-05-10T10:18:21.331Z,93462.56
2019-05-10T10:20:48.165Z,93464.27
2019-05-10T10:23:17.356Z,93470.92
2019-05-10T10:25:48.230Z,93475.89
2019-05-10T10:28:17.503Z,93478.45
2019-05-10T10:30:50.361Z,93472.91
2019-05-10T10:33:24.885Z,93475.89
2019-05-10T10:35:48.120Z,93467.35
2019-05-10T10:38:17.934Z,93474.95
2019-05-10T10:40:46.698Z,93469.45
2019-05-10T10:43:15.109Z,93477.73
2019-05-10T10:45:43.656Z,93478.30
2019-05-10T10:48:13.028Z,93473.33
2019-05-10T10:50:44.509Z,93472.62
2019-05-10T10:53:11.984Z,93469.09
2019-05-10T10:55:40.517Z,93480.27
2019-05-10T10:58:10.748Z,93475.53
2019-05-10T11:00:39.874Z,93472.36
2019-05-10T11:03:08.271Z,93472.77
2019-05-10T11:05:36.663Z,93468.11
2019-05-10T11:08:05.062Z,93461.23
2019-05-10T11:10:33.573Z,93472.20
2019-05-10T11:13:10.704Z,93470.12
2019-05-10T11:15:35.938Z,93463.48
2019-05-10T11:18:02.225Z,93465.59
2019-05-10T11:20:31.800Z,93464.45
2019-05-10T11:23:00.832Z,93466.32
2019-05-10T11:25:29.286Z,93463.57
2019-05-10T11:28:00.935Z,93457.45
2019-05-10T11:30:27.885Z,93446.91
2019-05-10T11:32:56.286Z,93448.36
2019-05-10T11:35:30.979Z,93444.57
2019-05-10T11:37:54.823Z,93446.16
2019-05-10T11:40:30.758Z,93446.97
2019-05-10T11:42:53.843Z,93456.67
2019-05-10T11:45:26.072Z,93452.77
2019-05-10T11:47:54.324Z,93449.20
2019-05-10T11:50:31.530Z,93443.17
2019-05-10T11:52:53.872Z,93445.45
2019-05-10T11:55:22.326Z,93447.75
2019-05-10T11:58:02.061Z,93444.38
2019-05-10T12:00:29.246Z,93444.23
2019-05-10T12:05:26.431Z,93441.69
2019-05-10T12:07:54.564Z,93445.93
2019-05-10T12:10:25.707Z,93450.30
2019-05-10T12:13:06.194Z,93447.67
2019-05-10T12:15:25.347Z,93453.38
2019-05-10T12:17:57.986Z,93452.98
2019-05-10T12:20:26.914Z,93448.67
2019-05-10T12:22:52.494Z,93453.16
2019-05-10T12:25:37.844Z,93451.05
2019-05-10T12:27:52.315Z,93462.85
2019-05-10T12:30:21.624Z,93458.25
2019-05-10T12:32:56.307Z,93464.64
2019-05-10T12:35:21.334Z,93459.45
2019-05-10T12:37:54.153Z,93468.31
2019-05-10T12:40:23.878Z,93469.33
2019-05-10T12:42:50.458Z,93464.48
2019-05-10T12:45:22.884Z,93458.33
2019-05-10T12:47:51.662Z,93463.91
2019-05-10T12:50:20.501Z,93467.97
2019-05-10T12:53:02.623Z,93470.41
2019-05-10T12:55:19.286Z,93465.66
2019-05-10T12:57:47.678Z,93470.10
2019-05-10T13:00:17.477Z,93476.81
2019-05-10T13:02:51.070Z,93482.36
2019-05-10T13:05:16.355Z,93482.22
2019-05-10T13:07:44.939Z,93482.31
2019-05-10T13:10:13.847Z,93486.03
2019-05-10T13:12:46.907Z,93488.84
2019-05-10T13:15:13.228Z,93487.55
2019-05-10T13:17:44.024Z,93495.56
2019-05-10T13:20:12.384Z,93484.66
2019-05-10T13:22:41.084Z,93489.12
2019-05-10T13:25:10.227Z,93491.23
2019-05-10T13:27:38.923Z,93491.02
2019-05-10T13:30:08.252Z,93481.53
2019-05-10T13:32:36.965Z,93481.14
2019-05-10T13:35:06.985Z,93473.60
2019-05-10T13:37:35.668Z,93471.78
2019-05-10T13:40:08.390Z,93470.32
2019-05-10T13:42:43.232Z,93467.36
2019-05-10T13:45:07.565Z,93455.94
2019-05-10T13:47:35.965Z,93459.33
2019-05-10T13:50:06.205Z,93466.48
2019-05-10T13:52:40.711Z,93461.30
2019-05-10T13:55:06.678Z,93464.14
2019-05-10T13:57:35.063Z,93457.99
2019-05-10T14:00:05.448Z,93463.58
2019-05-10T14:02:34.910Z,93464.17
2019-05-10T14:05:04.124Z,93469.07
2019-05-10T14:07:32.839Z,93463.63
2019-05-10T14:10:01.212Z,93469.36
2019-05-10T14:12:29.605Z,93461.37
2019-05-10T14:15:02.607Z,93456.38
2019-05-10T14:17:28.331Z,93468.08
2019-05-10T14:19:57.057Z,93457.44
2019-05-10T14:22:25.460Z,93448.17
2019-05-10T14:24:58.904Z,93457.85
2019-05-10T14:27:24.019Z,93456.18
2019-05-10T14:29:52.733Z,93461.70
2019-05-10T14:32:21.129Z,93452.27
2019-05-10T14:34:49.520Z,93452.38
2019-05-10T14:37:19.846Z,93459.33
2019-05-10T14:39:48.415Z,93454.96
2019-05-10T14:42:16.812Z,93451.88
2019-05-10T14:44:45.206Z,93449.06
2019-05-10T14:47:13.951Z,93451.50
2019-05-10T14:49:46.907Z,93449.17
2019-05-10T14:52:12.767Z,93448.95
2019-05-10T14:54:44.109Z,93452.92
2019-05-10T14:57:12.063Z,93454.68
2019-05-10T14:59:40.445Z,93453.23
2019-05-10T15:02:08.840Z,93450.49
2019-05-10T15:04:46.611Z,93449.93
2019-05-10T15:07:08.606Z,93446.39
2019-05-10T15:09:37.744Z,93454.47
2019-05-10T15:12:10.177Z,93448.06
2019-05-10T15:14:36.872Z,93450.81
2019-05-10T15:17:05.281Z,93457.30
2019-05-10T15:19:33.669Z,93452.08
2019-05-10T15:22:02.341Z,93452.63
2019-05-10T15:24:31.208Z,93448.56
2019-05-10T15:26:59.603Z,93451.21
2019-05-10T15:29:28.273Z,93454.21
2019-05-10T15:31:56.961Z,93456.09
2019-05-10T15:34:25.346Z,93454.79
2019-05-10T15:36:53.753Z,93447.42
2019-05-10T15:39:23.017Z,93450.16
2019-05-10T15:41:53.739Z,93449.84
2019-05-10T15:44:30.264Z,93444.45
2019-05-10T15:46:52.876Z,93451.49
2019-05-10T15:49:24.354Z,93465.36
2019-05-10T15:51:56.762Z,93445.77
2019-05-10T15:54:21.796Z,93449.84
2019-05-10T15:56:50.230Z,93450.45
2019-05-10T15:59:21.241Z,93443.41
2019-05-10T16:01:49.244Z,93446.95
2019-05-10T16:04:17.634Z,93453.55
2019-05-10T16:06:46.031Z,93448.25
2019-05-10T16:09:19.140Z,93444.19
2019-05-10T16:11:44.545Z,93443.45
2019-05-10T16:14:12.937Z,93452.39
2019-05-10T16:16:41.345Z,93450.06
2019-05-10T16:19:12.917Z,93449.81
2019-05-10T16:21:40.114Z,93441.78
2019-05-10T16:24:08.522Z,93448.58
2019-05-10T16:26:37.179Z,93448.55
2019-05-10T16:29:05.865Z,93450.34
2019-05-10T16:31:34.257Z,93457.30
2019-05-10T16:34:03.642Z,93459.30
2019-05-10T16:36:32.333Z,93457.96
2019-05-10T16:39:01.980Z,93458.16
2019-05-10T16:41:30.511Z,93452.48
2019-05-10T16:44:00.170Z,93459.50
2019-05-10T16:46:29.025Z,93464.32
2019-05-10T16:48:57.920Z,93471.23
2019-05-10T16:51:26.313Z,93463.58
2019-05-10T16:53:54.716Z,93454.19
2019-05-10T16:56:23.108Z,93449.00
2019-05-10T16:58:53.139Z,93451.05
2019-05-10T17:01:24.966Z,93439.69
2019-05-10T17:03:59.674Z,93443.98
2019-05-10T17:06:21.879Z,93437.47
2019-05-10T17:08:50.273Z,93435.61
2019-05-10T17:11:18.837Z,93429.78
2019-05-10T17:13:47.548Z,93427.89
2019-05-10T17:16:18.511Z,93427.12
2019-05-10T17:18:50.050Z,93431.21
2019-05-10T17:21:16.179Z,93438.75
2019-05-10T17:23:46.889Z,93431.05
2019-05-10T17:26:14.708Z,93432.55
2019-05-10T17:28:43.347Z,93429.01
2019-05-10T17:31:12.034Z,93432.52
2019-05-10T17:33:42.655Z,93434.45
2019-05-10T17:36:14.509Z,93437.64
2019-05-10T17:38:41.389Z,93437.52
2019-05-10T17:41:10.075Z,93440.09
2019-05-10T17:43:40.011Z,93440.22
2019-05-10T17:46:12.775Z,93428.73
2019-05-10T17:48:40.728Z,93435.02
2019-05-10T17:51:09.001Z,93441.11
2019-05-10T17:53:37.415Z,93433.50
2019-05-10T17:56:05.797Z,93435.52
2019-05-10T17:58:35.034Z,93441.38
2019-05-10T18:01:03.758Z,93452.31
2019-05-10T18:03:32.494Z,93457.67
2019-05-10T18:06:01.244Z,93463.07
2019-05-10T18:08:29.704Z,93469.61
2019-05-10T18:11:03.768Z,93473.06
2019-05-10T18:13:28.504Z,93471.52
2019-05-10T18:15:56.910Z,93484.16
2019-05-10T18:18:25.583Z,93489.92
2019-05-10T18:20:54.000Z,93479.92
2019-05-10T18:23:23.010Z,93477.16
2019-05-10T18:25:57.803Z,93481.98
2019-05-10T18:28:22.032Z,93485.94
2019-05-10T18:30:50.459Z,93483.16
2019-05-10T18:33:18.935Z,93487.81
2019-05-10T18:35:52.212Z,93492.37
2019-05-10T18:38:17.739Z,93491.61
2019-05-10T18:40:46.140Z,93484.79
2019-05-10T18:43:14.531Z,93487.25
2019-05-10T18:48:12.271Z,93495.75
2019-05-10T18:50:45.442Z,93490.61
2019-05-10T18:53:11.133Z,93497.03
2019-05-10T18:55:39.496Z,93504.60
2019-05-10T18:58:08.147Z,93500.95
2019-05-10T19:00:40.137Z,93505.73
2019-05-10T19:03:07.115Z,93504.77
2019-05-10T19:05:35.852Z,93510.62
2019-05-10T19:08:05.975Z,93520.30
2019-05-10T19:10:34.433Z,93526.89
2019-05-10T19:13:05.076Z,93523.20
2019-05-10T19:15:33.251Z,93529.25
2019-05-10T19:18:01.645Z,93527.83
2019-05-10T19:20:30.042Z,93525.56
2019-05-10T19:22:58.709Z,93522.93
2019-05-10T19:25:27.115Z,93520.42
2019-05-10T19:27:55.497Z,93521.51
2019-05-10T19:30:24.254Z,93516.08
2019-05-10T19:32:56.507Z,93523.91
2019-05-10T19:35:22.757Z,93521.39
2019-05-10T19:37:51.141Z,93532.86
2019-05-10T19:40:19.830Z,93531.38
2019-05-10T19:42:49.532Z,93535.78
2019-05-10T19:45:21.091Z,93533.21
2019-05-10T19:47:49.853Z,93524.63
2019-05-10T19:50:24.335Z,93535.38
2019-05-10T19:52:49.279Z,93533.27
2019-05-10T19:55:19.611Z,93528.58
2019-05-10T19:57:49.449Z,93528.41
2019-05-10T20:00:18.457Z,93516.88
2019-05-10T20:02:46.839Z,93514.59
2019-05-10T20:05:15.303Z,93508.59
2019-05-10T20:07:46.213Z,93507.45
2019-05-10T20:10:14.216Z,93505.41
2019-05-10T20:12:42.883Z,93496.78
2019-05-10T20:15:11.773Z,93498.48
2019-05-10T20:17:40.481Z,93492.50
2019-05-10T20:20:10.296Z,93484.06
2019-05-10T20:22:38.709Z,93479.09
2019-05-10T20:25:07.545Z,93480.05
2019-05-10T20:27:35.933Z,93481.06
2019-05-10T20:30:07.260Z,93484.05
2019-05-10T20:32:36.173Z,93474.63
2019-05-10T20:35:06.767Z,93467.84
2019-05-10T20:37:35.173Z,93473.15
2019-05-10T20:40:04.238Z,93472.85
2019-05-10T20:42:32.640Z,93481.06
2019-05-10T20:45:07.662Z,93486.38
2019-05-10T20:47:31.457Z,93489.89
2019-05-10T20:50:00.155Z,93495.38
2019-05-10T20:52:28.558Z,93494.59
2019-05-10T20:54:57.210Z,93489.89
2019-05-10T20:57:25.609Z,93488.92
2019-05-10T20:59:53.999Z,93487.14
2019-05-10T21:02:22.402Z,93483.55
2019-05-10T21:04:50.798Z,93479.67
2019-05-10T21:07:19.515Z,93481.88
2019-05-10T21:09:47.913Z,93477.23
2019-05-10T21:12:16.323Z,93479.06
2019-05-10T21:14:45.068Z,93480.67
2019-05-10T21:17:13.466Z,93481.51
2019-05-10T21:19:41.857Z,93485.31
2019-05-10T21:22:10.270Z,93492.39
2019-05-10T21:24:38.990Z,93486.67
2019-05-10T21:27:07.681Z,93480.91
2019-05-10T21:29:36.064Z,93485.08
2019-05-10T21:32:04.805Z,93478.52
2019-05-10T21:34:33.277Z,93476.47
2019-05-10T21:37:01.681Z,93469.20
2019-05-10T21:39:30.106Z,93487.33
2019-05-10T21:41:58.561Z,93494.45
2019-05-10T21:44:26.937Z,93486.41
2019-05-10T21:46:55.341Z,93488.37
2019-05-10T21:49:23.772Z,93492.34
2019-05-10T21:51:52.212Z,93482.94
2019-05-10T21:54:20.645Z,93490.48
2019-05-10T21:56:49.079Z,93492.06
2019-05-10T21:59:17.497Z,93493.66
2019-05-10T22:01:46.009Z,93493.42
2019-05-10T22:04:14.736Z,93493.95
2019-05-10T22:06:43.159Z,93493.71
2019-05-10T22:09:11.860Z,93499.14
2019-05-10T22:11:40.281Z,93506.22
2019-05-10T22:14:08.730Z,93504.86
2019-05-10T22:16:37.147Z,93502.05
2019-05-10T22:19:05.585Z,93497.09
2019-05-10T22:21:34.313Z,93494.28
2019-05-10T22:24:02.775Z,93492.97
2019-05-10T22:26:31.203Z,93489.41
2019-05-10T22:28:59.657Z,93487.11
2019-05-10T22:31:28.092Z,93487.11
2019-05-10T22:33:56.820Z,93490.52
2019-05-10T22:36:25.240Z,93492.64
2019-05-10T22:39:06.458Z,93485.56
2019-05-10T22:41:24.103Z,93489.27
2019-05-10T22:43:52.903Z,93492.69
2019-05-10T22:46:21.327Z,93492.55
2019-05-10T22:48:50.064Z,93494.22
2019-05-10T22:51:18.849Z,93494.50
2019-05-10T22:53:59.064Z,93489.55
2019-05-10T22:56:17.443Z,93489.06
2019-05-10T22:58:45.872Z,93483.78
2019-05-10T23:01:14.301Z,93476.67
2019-05-10T23:03:43.108Z,93486.35
2019-05-10T23:06:12.074Z,93484.69
2019-05-10T23:08:40.512Z,93482.56
2019-05-10T23:11:09.274Z,93483.59
2019-05-10T23:13:37.710Z,93481.30
2019-05-10T23:16:06.431Z,93486.07
2019-05-10T23:18:34.869Z,93481.35
2019-05-10T23:21:03.297Z,93475.59
2019-05-10T23:23:31.736Z,93479.02
2019-05-10T23:26:00.168Z,93474.33
2019-05-10T23:28:28.946Z,93476.20
2019-05-10T23:30:57.375Z,93471.70
2019-05-10T23:33:25.813Z,93465.44
2019-05-10T23:35:54.253Z,93462.58
2019-05-10T23:38:22.694Z,93467.03
2019-05-10T23:40:51.120Z,93464.41
2019-05-10T23:43:19.847Z,93452.66
2019-05-10T23:45:48.277Z,93455.33
2019-05-10T23:48:16.721Z,93447.98
2019-05-10T23:50:45.152Z,93452.62
2019-05-10T23:53:14.156Z,93440.92
2019-05-10T23:55:42.577Z,93442.00
2019-05-10T23:58:11.016Z,93432.30
